sensor_id;sensor_type;location;lat;lon;timestamp;P1;durP1;ratioP1;P2;durP2;ratioP2
59830;SDS011;45711;50.108;13.712;2022-09-03T00:02:20;9.65;;;2.75;;
59830;SDS011;45711;50.108;13.712;2022-09-03T00:04:52;4.55;;;2.38;;
59830;SDS011;45711;50.108;13.712;2022-09-03T00:07:25;5.30;;;2.33;;
59830;SDS011;45711;50.108;13.712;2022-09-03T00:09:56;5.05;;;2.22;;
59830;SDS011;45711;50.108;13.712;2022-09-03T00:12:27;7.07;;;2.25;;
59830;SDS011;45711;50.108;13.712;2022-09-03T00:14:57;7.22;;;2.13;;
59830;SDS011;45711;50.108;13.712;2022-09-03T00:17:29;8.45;;;2.45;;
59830;SDS011;45711;50.108;13.712;2022-09-03T00:20:00;5.70;;;2.47;;
59830;SDS011;45711;50.108;13.712;2022-09-03T00:22:31;4.07;;;2.17;;
59830;SDS011;45711;50.108;13.712;2022-09-03T00:25:01;5.93;;;2.70;;
59830;SDS011;45711;50.108;13.712;2022-09-03T00:27:28;3.97;;;2.28;;
59830;SDS011;45711;50.108;13.712;2022-09-03T00:29:58;8.65;;;2.33;;
59830;SDS011;45711;50.108;13.712;2022-09-03T00:32:33;5.78;;;2.63;;
59830;SDS011;45711;50.108;13.712;2022-09-03T00:35:05;6.68;;;2.20;;
59830;SDS011;45711;50.108;13.712;2022-09-03T00:37:35;5.68;;;2.45;;
59830;SDS011;45711;50.108;13.712;2022-09-03T00:40:01;5.70;;;2.58;;
59830;SDS011;45711;50.108;13.712;2022-09-03T00:42:33;6.03;;;2.28;;
59830;SDS011;45711;50.108;13.712;2022-09-03T00:45:15;6.05;;;2.13;;
59830;SDS011;45711;50.108;13.712;2022-09-03T00:47:51;5.60;;;2.30;;
59830;SDS011;45711;50.108;13.712;2022-09-03T00:50:26;5.03;;;2.10;;
59830;SDS011;45711;50.108;13.712;2022-09-03T00:52:59;3.75;;;2.10;;
59830;SDS011;45711;50.108;13.712;2022-09-03T00:55:34;5.25;;;2.25;;
59830;SDS011;45711;50.108;13.712;2022-09-03T00:58:14;4.93;;;2.08;;
59830;SDS011;45711;50.108;13.712;2022-09-03T01:00:50;8.48;;;2.30;;
59830;SDS011;45711;50.108;13.712;2022-09-03T01:03:19;4.38;;;2.33;;
59830;SDS011;45711;50.108;13.712;2022-09-03T01:06:00;7.15;;;2.80;;
59830;SDS011;45711;50.108;13.712;2022-09-03T01:08:44;6.63;;;2.10;;
59830;SDS011;45711;50.108;13.712;2022-09-03T01:11:26;3.25;;;1.90;;
59830;SDS011;45711;50.108;13.712;2022-09-03T01:13:58;3.38;;;2.10;;
59830;SDS011;45711;50.108;13.712;2022-09-03T01:16:32;4.72;;;2.35;;
59830;SDS011;45711;50.108;13.712;2022-09-03T01:19:08;6.80;;;2.45;;
59830;SDS011;45711;50.108;13.712;2022-09-03T01:21:47;4.60;;;1.90;;
59830;SDS011;45711;50.108;13.712;2022-09-03T01:24:40;6.07;;;2.20;;
59830;SDS011;45711;50.108;13.712;2022-09-03T01:27:26;3.00;;;1.92;;
59830;SDS011;45711;50.108;13.712;2022-09-03T01:30:03;6.43;;;1.85;;
59830;SDS011;45711;50.108;13.712;2022-09-03T01:32:34;4.55;;;2.33;;
59830;SDS011;45711;50.108;13.712;2022-09-03T01:35:10;4.82;;;2.03;;
59830;SDS011;45711;50.108;13.712;2022-09-03T01:37:45;3.15;;;1.90;;
59830;SDS011;45711;50.108;13.712;2022-09-03T01:40:27;4.40;;;2.08;;
59830;SDS011;45711;50.108;13.712;2022-09-03T01:43:04;3.35;;;1.85;;
59830;SDS011;45711;50.108;13.712;2022-09-03T01:45:52;3.55;;;1.83;;
59830;SDS011;45711;50.108;13.712;2022-09-03T01:48:22;2.80;;;1.80;;
59830;SDS011;45711;50.108;13.712;2022-09-03T01:50:57;6.05;;;2.00;;
59830;SDS011;45711;50.108;13.712;2022-09-03T01:53:37;6.63;;;2.40;;
59830;SDS011;45711;50.108;13.712;2022-09-03T01:56:15;5.57;;;2.22;;
59830;SDS011;45711;50.108;13.712;2022-09-03T01:58:53;4.65;;;2.10;;
59830;SDS011;45711;50.108;13.712;2022-09-03T02:01:29;4.95;;;2.05;;
59830;SDS011;45711;50.108;13.712;2022-09-03T02:03:58;4.57;;;2.28;;
59830;SDS011;45711;50.108;13.712;2022-09-03T02:06:24;6.18;;;2.38;;
59830;SDS011;45711;50.108;13.712;2022-09-03T02:08:50;3.22;;;1.95;;
59830;SDS011;45711;50.108;13.712;2022-09-03T02:11:16;6.85;;;1.90;;
59830;SDS011;45711;50.108;13.712;2022-09-03T02:13:42;6.82;;;2.13;;
59830;SDS011;45711;50.108;13.712;2022-09-03T02:16:13;2.78;;;1.90;;
59830;SDS011;45711;50.108;13.712;2022-09-03T02:18:42;2.88;;;1.70;;
59830;SDS011;45711;50.108;13.712;2022-09-03T02:21:10;5.18;;;2.10;;
59830;SDS011;45711;50.108;13.712;2022-09-03T02:23:40;12.82;;;2.58;;
59830;SDS011;45711;50.108;13.712;2022-09-03T02:26:07;3.72;;;1.80;;
59830;SDS011;45711;50.108;13.712;2022-09-03T02:28:35;10.18;;;2.30;;
59830;SDS011;45711;50.108;13.712;2022-09-03T02:31:01;5.10;;;2.75;;
59830;SDS011;45711;50.108;13.712;2022-09-03T02:33:27;4.97;;;2.30;;
59830;SDS011;45711;50.108;13.712;2022-09-03T02:35:55;4.53;;;2.08;;
59830;SDS011;45711;50.108;13.712;2022-09-03T02:38:21;3.75;;;2.10;;
59830;SDS011;45711;50.108;13.712;2022-09-03T02:40:52;2.72;;;1.95;;
59830;SDS011;45711;50.108;13.712;2022-09-03T02:43:20;3.13;;;1.92;;
59830;SDS011;45711;50.108;13.712;2022-09-03T02:45:49;4.65;;;2.20;;
59830;SDS011;45711;50.108;13.712;2022-09-03T02:48:21;3.03;;;2.00;;
59830;SDS011;45711;50.108;13.712;2022-09-03T02:50:48;4.60;;;2.05;;
59830;SDS011;45711;50.108;13.712;2022-09-03T02:53:15;3.83;;;2.00;;
59830;SDS011;45711;50.108;13.712;2022-09-03T02:55:41;3.20;;;1.80;;
59830;SDS011;45711;50.108;13.712;2022-09-03T02:58:07;3.10;;;2.00;;
59830;SDS011;45711;50.108;13.712;2022-09-03T03:00:32;5.18;;;1.80;;
59830;SDS011;45711;50.108;13.712;2022-09-03T03:03:00;3.80;;;2.22;;
59830;SDS011;45711;50.108;13.712;2022-09-03T03:05:26;3.08;;;2.10;;
59830;SDS011;45711;50.108;13.712;2022-09-03T03:08:00;5.40;;;1.77;;
59830;SDS011;45711;50.108;13.712;2022-09-03T03:10:27;3.67;;;2.13;;
59830;SDS011;45711;50.108;13.712;2022-09-03T03:12:52;2.70;;;1.83;;
59830;SDS011;45711;50.108;13.712;2022-09-03T03:15:18;6.75;;;2.30;;
59830;SDS011;45711;50.108;13.712;2022-09-03T03:17:44;4.30;;;2.35;;
59830;SDS011;45711;50.108;13.712;2022-09-03T03:20:10;3.15;;;2.03;;
59830;SDS011;45711;50.108;13.712;2022-09-03T03:22:35;5.55;;;1.80;;
59830;SDS011;45711;50.108;13.712;2022-09-03T03:25:04;3.50;;;1.80;;
59830;SDS011;45711;50.108;13.712;2022-09-03T03:27:35;10.00;;;2.10;;
59830;SDS011;45711;50.108;13.712;2022-09-03T03:30:04;3.92;;;1.95;;
59830;SDS011;45711;50.108;13.712;2022-09-03T03:32:33;3.92;;;2.30;;
59830;SDS011;45711;50.108;13.712;2022-09-03T03:34:58;4.90;;;2.20;;
59830;SDS011;45711;50.108;13.712;2022-09-03T03:37:24;6.00;;;2.30;;
59830;SDS011;45711;50.108;13.712;2022-09-03T03:39:49;7.85;;;2.90;;
59830;SDS011;45711;50.108;13.712;2022-09-03T03:42:15;4.30;;;2.70;;
59830;SDS011;45711;50.108;13.712;2022-09-03T03:44:42;8.93;;;4.05;;
59830;SDS011;45711;50.108;13.712;2022-09-03T03:47:08;7.78;;;4.30;;
59830;SDS011;45711;50.108;13.712;2022-09-03T03:49:33;8.27;;;4.65;;
59830;SDS011;45711;50.108;13.712;2022-09-03T03:51:59;4.43;;;2.70;;
59830;SDS011;45711;50.108;13.712;2022-09-03T03:54:27;13.35;;;4.60;;
59830;SDS011;45711;50.108;13.712;2022-09-03T03:56:52;12.45;;;4.63;;
59830;SDS011;45711;50.108;13.712;2022-09-03T03:59:18;14.80;;;4.70;;
59830;SDS011;45711;50.108;13.712;2022-09-03T04:01:45;8.82;;;4.38;;
59830;SDS011;45711;50.108;13.712;2022-09-03T04:04:10;7.32;;;4.05;;
59830;SDS011;45711;50.108;13.712;2022-09-03T04:06:36;8.52;;;4.00;;
59830;SDS011;45711;50.108;13.712;2022-09-03T04:09:01;7.47;;;3.50;;
59830;SDS011;45711;50.108;13.712;2022-09-03T04:11:27;5.00;;;3.25;;
59830;SDS011;45711;50.108;13.712;2022-09-03T04:13:53;8.73;;;2.72;;
59830;SDS011;45711;50.108;13.712;2022-09-03T04:16:19;10.05;;;2.80;;
59830;SDS011;45711;50.108;13.712;2022-09-03T04:18:48;4.00;;;2.30;;
59830;SDS011;45711;50.108;13.712;2022-09-03T04:21:14;8.32;;;2.95;;
59830;SDS011;45711;50.108;13.712;2022-09-03T04:23:42;10.88;;;2.47;;
59830;SDS011;45711;50.108;13.712;2022-09-03T04:26:18;4.95;;;2.25;;
59830;SDS011;45711;50.108;13.712;2022-09-03T04:29:08;7.78;;;2.08;;
59830;SDS011;45711;50.108;13.712;2022-09-03T04:31:34;4.13;;;2.10;;
59830;SDS011;45711;50.108;13.712;2022-09-03T04:34:06;8.07;;;2.47;;
59830;SDS011;45711;50.108;13.712;2022-09-03T04:36:31;6.18;;;2.60;;
59830;SDS011;45711;50.108;13.712;2022-09-03T04:38:59;3.83;;;2.50;;
59830;SDS011;45711;50.108;13.712;2022-09-03T04:41:26;8.20;;;2.80;;
59830;SDS011;45711;50.108;13.712;2022-09-03T04:43:53;10.02;;;2.45;;
59830;SDS011;45711;50.108;13.712;2022-09-03T04:46:20;10.00;;;3.03;;
59830;SDS011;45711;50.108;13.712;2022-09-03T04:48:47;3.70;;;2.22;;
59830;SDS011;45711;50.108;13.712;2022-09-03T04:51:17;7.60;;;2.10;;
59830;SDS011;45711;50.108;13.712;2022-09-03T04:53:45;5.28;;;2.42;;
59830;SDS011;45711;50.108;13.712;2022-09-03T04:56:12;4.78;;;2.25;;
59830;SDS011;45711;50.108;13.712;2022-09-03T04:58:37;2.83;;;2.17;;
59830;SDS011;45711;50.108;13.712;2022-09-03T05:01:06;2.60;;;1.90;;
59830;SDS011;45711;50.108;13.712;2022-09-03T05:03:32;6.82;;;2.33;;
59830;SDS011;45711;50.108;13.712;2022-09-03T05:05:58;5.03;;;2.40;;
59830;SDS011;45711;50.108;13.712;2022-09-03T05:08:25;4.65;;;2.00;;
59830;SDS011;45711;50.108;13.712;2022-09-03T05:10:56;2.40;;;1.80;;
59830;SDS011;45711;50.108;13.712;2022-09-03T05:13:23;4.43;;;1.88;;
59830;SDS011;45711;50.108;13.712;2022-09-03T05:15:49;5.72;;;2.28;;
59830;SDS011;45711;50.108;13.712;2022-09-03T05:18:14;4.32;;;1.80;;
59830;SDS011;45711;50.108;13.712;2022-09-03T05:20:40;5.22;;;2.00;;
59830;SDS011;45711;50.108;13.712;2022-09-03T05:23:08;3.45;;;2.20;;
59830;SDS011;45711;50.108;13.712;2022-09-03T05:25:35;5.07;;;2.35;;
59830;SDS011;45711;50.108;13.712;2022-09-03T05:28:02;4.25;;;2.40;;
59830;SDS011;45711;50.108;13.712;2022-09-03T05:30:28;4.35;;;2.20;;
59830;SDS011;45711;50.108;13.712;2022-09-03T05:32:54;3.92;;;2.60;;
59830;SDS011;45711;50.108;13.712;2022-09-03T05:35:20;9.88;;;2.22;;
59830;SDS011;45711;50.108;13.712;2022-09-03T05:37:46;5.15;;;2.47;;
59830;SDS011;45711;50.108;13.712;2022-09-03T05:40:12;3.20;;;2.10;;
59830;SDS011;45711;50.108;13.712;2022-09-03T05:42:39;3.63;;;2.30;;
59830;SDS011;45711;50.108;13.712;2022-09-03T05:45:05;3.95;;;2.33;;
59830;SDS011;45711;50.108;13.712;2022-09-03T05:47:35;9.38;;;3.33;;
59830;SDS011;45711;50.108;13.712;2022-09-03T05:50:01;4.18;;;2.13;;
59830;SDS011;45711;50.108;13.712;2022-09-03T05:52:26;5.25;;;2.30;;
59830;SDS011;45711;50.108;13.712;2022-09-03T05:54:52;5.97;;;2.20;;
59830;SDS011;45711;50.108;13.712;2022-09-03T05:57:17;3.13;;;2.15;;
59830;SDS011;45711;50.108;13.712;2022-09-03T05:59:44;4.05;;;2.42;;
59830;SDS011;45711;50.108;13.712;2022-09-03T06:02:10;7.47;;;4.32;;
59830;SDS011;45711;50.108;13.712;2022-09-03T06:04:35;4.78;;;2.60;;
59830;SDS011;45711;50.108;13.712;2022-09-03T06:07:01;11.88;;;2.83;;
59830;SDS011;45711;50.108;13.712;2022-09-03T06:09:26;4.47;;;2.40;;
59830;SDS011;45711;50.108;13.712;2022-09-03T06:11:52;4.85;;;2.25;;
59830;SDS011;45711;50.108;13.712;2022-09-03T06:14:18;2.72;;;2.08;;
59830;SDS011;45711;50.108;13.712;2022-09-03T06:16:45;5.45;;;2.40;;
59830;SDS011;45711;50.108;13.712;2022-09-03T06:19:16;5.68;;;2.53;;
59830;SDS011;45711;50.108;13.712;2022-09-03T06:21:44;3.05;;;2.15;;
59830;SDS011;45711;50.108;13.712;2022-09-03T06:24:11;6.88;;;2.70;;
59830;SDS011;45711;50.108;13.712;2022-09-03T06:26:38;6.28;;;2.90;;
59830;SDS011;45711;50.108;13.712;2022-09-03T06:29:04;4.82;;;2.25;;
59830;SDS011;45711;50.108;13.712;2022-09-03T06:31:30;8.98;;;2.42;;
59830;SDS011;45711;50.108;13.712;2022-09-03T06:33:57;6.63;;;2.03;;
59830;SDS011;45711;50.108;13.712;2022-09-03T06:36:23;7.50;;;2.25;;
59830;SDS011;45711;50.108;13.712;2022-09-03T06:38:50;6.68;;;2.42;;
59830;SDS011;45711;50.108;13.712;2022-09-03T06:41:18;10.05;;;2.13;;
59830;SDS011;45711;50.108;13.712;2022-09-03T06:43:49;4.18;;;2.15;;
59830;SDS011;45711;50.108;13.712;2022-09-03T06:46:16;4.28;;;2.13;;
59830;SDS011;45711;50.108;13.712;2022-09-03T06:48:43;3.15;;;1.98;;
59830;SDS011;45711;50.108;13.712;2022-09-03T06:51:12;4.43;;;2.10;;
59830;SDS011;45711;50.108;13.712;2022-09-03T06:53:39;2.20;;;1.90;;
59830;SDS011;45711;50.108;13.712;2022-09-03T06:56:06;5.05;;;2.50;;
59830;SDS011;45711;50.108;13.712;2022-09-03T06:58:34;4.80;;;2.28;;
59830;SDS011;45711;50.108;13.712;2022-09-03T07:01:01;3.25;;;1.90;;
59830;SDS011;45711;50.108;13.712;2022-09-03T07:03:28;9.77;;;2.17;;
59830;SDS011;45711;50.108;13.712;2022-09-03T07:05:58;9.05;;;2.03;;
59830;SDS011;45711;50.108;13.712;2022-09-03T07:08:26;6.70;;;1.92;;
59830;SDS011;45711;50.108;13.712;2022-09-03T07:10:51;8.90;;;2.15;;
59830;SDS011;45711;50.108;13.712;2022-09-03T07:13:17;3.65;;;2.03;;
59830;SDS011;45711;50.108;13.712;2022-09-03T07:15:46;9.00;;;2.00;;
59830;SDS011;45711;50.108;13.712;2022-09-03T07:18:11;5.20;;;1.88;;
59830;SDS011;45711;50.108;13.712;2022-09-03T07:20:37;4.25;;;2.13;;
59830;SDS011;45711;50.108;13.712;2022-09-03T07:23:02;4.03;;;1.77;;
59830;SDS011;45711;50.108;13.712;2022-09-03T07:25:29;6.15;;;2.60;;
59830;SDS011;45711;50.108;13.712;2022-09-03T07:27:55;3.72;;;1.90;;
59830;SDS011;45711;50.108;13.712;2022-09-03T07:30:22;4.97;;;2.45;;
59830;SDS011;45711;50.108;13.712;2022-09-03T07:32:49;3.03;;;2.00;;
59830;SDS011;45711;50.108;13.712;2022-09-03T07:35:15;8.32;;;2.20;;
59830;SDS011;45711;50.108;13.712;2022-09-03T07:37:42;2.83;;;1.80;;
59830;SDS011;45711;50.108;13.712;2022-09-03T07:40:08;4.15;;;2.28;;
59830;SDS011;45711;50.108;13.712;2022-09-03T07:42:37;106.65;;;4.72;;
59830;SDS011;45711;50.108;13.712;2022-09-03T07:45:05;5.22;;;1.50;;
59830;SDS011;45711;50.108;13.712;2022-09-03T07:47:34;3.17;;;1.58;;
59830;SDS011;45711;50.108;13.712;2022-09-03T07:50:00;1.63;;;1.33;;
59830;SDS011;45711;50.108;13.712;2022-09-03T07:52:25;4.82;;;1.95;;
59830;SDS011;45711;50.108;13.712;2022-09-03T07:54:52;4.72;;;1.63;;
59830;SDS011;45711;50.108;13.712;2022-09-03T07:57:17;7.68;;;1.90;;
59830;SDS011;45711;50.108;13.712;2022-09-03T07:59:44;4.30;;;1.63;;
59830;SDS011;45711;50.108;13.712;2022-09-03T08:02:10;14.13;;;1.90;;
59830;SDS011;45711;50.108;13.712;2022-09-03T08:04:35;4.43;;;1.65;;
59830;SDS011;45711;50.108;13.712;2022-09-03T08:07:04;9.40;;;1.70;;
59830;SDS011;45711;50.108;13.712;2022-09-03T08:09:30;21.23;;;1.80;;
59830;SDS011;45711;50.108;13.712;2022-09-03T08:12:00;3.88;;;1.75;;
59830;SDS011;45711;50.108;13.712;2022-09-03T08:14:25;3.72;;;1.70;;
59830;SDS011;45711;50.108;13.712;2022-09-03T08:16:52;3.85;;;2.15;;
59830;SDS011;45711;50.108;13.712;2022-09-03T08:19:18;6.00;;;2.08;;
59830;SDS011;45711;50.108;13.712;2022-09-03T08:21:44;2.90;;;1.50;;
59830;SDS011;45711;50.108;13.712;2022-09-03T08:24:10;6.35;;;1.80;;
59830;SDS011;45711;50.108;13.712;2022-09-03T08:26:37;2.78;;;1.58;;
59830;SDS011;45711;50.108;13.712;2022-09-03T08:29:05;2.55;;;1.50;;
59830;SDS011;45711;50.108;13.712;2022-09-03T08:31:31;5.20;;;1.30;;
59830;SDS011;45711;50.108;13.712;2022-09-03T08:34:00;2.97;;;1.50;;
59830;SDS011;45711;50.108;13.712;2022-09-03T08:36:31;2.55;;;1.38;;
59830;SDS011;45711;50.108;13.712;2022-09-03T08:39:00;2.58;;;1.40;;
59830;SDS011;45711;50.108;13.712;2022-09-03T08:41:36;5.93;;;1.80;;
59830;SDS011;45711;50.108;13.712;2022-09-03T08:44:23;7.82;;;1.60;;
59830;SDS011;45711;50.108;13.712;2022-09-03T08:46:54;3.13;;;1.67;;
59830;SDS011;45711;50.108;13.712;2022-09-03T08:49:26;2.45;;;1.30;;
59830;SDS011;45711;50.108;13.712;2022-09-03T08:52:01;3.50;;;1.70;;
59830;SDS011;45711;50.108;13.712;2022-09-03T08:56:57;3.28;;;1.33;;
59830;SDS011;45711;50.108;13.712;2022-09-03T08:59:25;3.13;;;1.50;;
59830;SDS011;45711;50.108;13.712;2022-09-03T09:01:51;6.05;;;1.50;;
59830;SDS011;45711;50.108;13.712;2022-09-03T09:04:25;6.60;;;1.67;;
59830;SDS011;45711;50.108;13.712;2022-09-03T09:07:05;5.43;;;1.58;;
59830;SDS011;45711;50.108;13.712;2022-09-03T09:09:36;2.58;;;1.50;;
59830;SDS011;45711;50.108;13.712;2022-09-03T09:12:14;3.22;;;1.35;;
59830;SDS011;45711;50.108;13.712;2022-09-03T09:14:56;4.47;;;1.63;;
59830;SDS011;45711;50.108;13.712;2022-09-03T09:17:48;2.92;;;1.35;;
59830;SDS011;45711;50.108;13.712;2022-09-03T09:20:28;2.03;;;1.20;;
59830;SDS011;45711;50.108;13.712;2022-09-03T09:23:00;4.32;;;1.40;;
59830;SDS011;45711;50.108;13.712;2022-09-03T09:25:28;2.50;;;1.40;;
59830;SDS011;45711;50.108;13.712;2022-09-03T09:27:57;4.90;;;1.65;;
59830;SDS011;45711;50.108;13.712;2022-09-03T09:30:24;11.55;;;1.80;;
59830;SDS011;45711;50.108;13.712;2022-09-03T09:32:50;6.15;;;1.70;;
59830;SDS011;45711;50.108;13.712;2022-09-03T09:35:30;5.60;;;1.48;;
59830;SDS011;45711;50.108;13.712;2022-09-03T09:41:41;2.03;;;1.05;;
59830;SDS011;45711;50.108;13.712;2022-09-03T09:45:14;2.05;;;1.20;;
59830;SDS011;45711;50.108;13.712;2022-09-03T09:47:40;5.22;;;1.63;;
59830;SDS011;45711;50.108;13.712;2022-09-03T09:50:14;5.20;;;1.65;;
59830;SDS011;45711;50.108;13.712;2022-09-03T09:52:43;3.33;;;1.63;;
59830;SDS011;45711;50.108;13.712;2022-09-03T09:55:12;3.60;;;1.70;;
59830;SDS011;45711;50.108;13.712;2022-09-03T09:57:41;3.17;;;1.33;;
59830;SDS011;45711;50.108;13.712;2022-09-03T10:00:08;12.50;;;2.10;;
59830;SDS011;45711;50.108;13.712;2022-09-03T10:03:05;8.95;;;1.70;;
59830;SDS011;45711;50.108;13.712;2022-09-03T10:05:35;2.30;;;1.33;;
59830;SDS011;45711;50.108;13.712;2022-09-03T10:08:05;2.97;;;1.60;;
59830;SDS011;45711;50.108;13.712;2022-09-03T10:10:43;1.67;;;1.20;;
59830;SDS011;45711;50.108;13.712;2022-09-03T10:13:15;6.13;;;1.23;;
59830;SDS011;45711;50.108;13.712;2022-09-03T10:15:44;3.05;;;1.40;;
59830;SDS011;45711;50.108;13.712;2022-09-03T10:18:16;3.70;;;1.42;;
59830;SDS011;45711;50.108;13.712;2022-09-03T10:20:53;4.88;;;1.50;;
59830;SDS011;45711;50.108;13.712;2022-09-03T10:23:29;3.08;;;1.35;;
59830;SDS011;45711;50.108;13.712;2022-09-03T10:26:01;2.53;;;1.27;;
59830;SDS011;45711;50.108;13.712;2022-09-03T10:28:31;2.22;;;1.13;;
59830;SDS011;45711;50.108;13.712;2022-09-03T10:34:02;2.70;;;1.40;;
59830;SDS011;45711;50.108;13.712;2022-09-03T10:36:33;6.20;;;1.75;;
59830;SDS011;45711;50.108;13.712;2022-09-03T10:39:08;3.15;;;1.30;;
59830;SDS011;45711;50.108;13.712;2022-09-03T10:41:41;9.43;;;1.58;;
59830;SDS011;45711;50.108;13.712;2022-09-03T10:44:31;3.72;;;1.48;;
59830;SDS011;45711;50.108;13.712;2022-09-03T10:47:18;2.35;;;1.20;;
59830;SDS011;45711;50.108;13.712;2022-09-03T10:49:57;2.45;;;1.23;;
59830;SDS011;45711;50.108;13.712;2022-09-03T10:52:36;3.53;;;1.30;;
59830;SDS011;45711;50.108;13.712;2022-09-03T10:55:17;3.00;;;1.50;;
59830;SDS011;45711;50.108;13.712;2022-09-03T10:57:52;2.00;;;1.23;;
59830;SDS011;45711;50.108;13.712;2022-09-03T11:00:23;1.73;;;1.13;;
59830;SDS011;45711;50.108;13.712;2022-09-03T11:02:56;4.10;;;1.30;;
59830;SDS011;45711;50.108;13.712;2022-09-03T11:05:37;2.90;;;1.20;;
59830;SDS011;45711;50.108;13.712;2022-09-03T11:08:08;2.35;;;1.25;;
59830;SDS011;45711;50.108;13.712;2022-09-03T11:10:39;5.63;;;1.30;;
59830;SDS011;45711;50.108;13.712;2022-09-03T11:13:10;2.05;;;1.17;;
59830;SDS011;45711;50.108;13.712;2022-09-03T11:15:39;3.15;;;1.27;;
59830;SDS011;45711;50.108;13.712;2022-09-03T11:18:12;2.50;;;1.20;;
59830;SDS011;45711;50.108;13.712;2022-09-03T11:20:43;3.15;;;1.23;;
59830;SDS011;45711;50.108;13.712;2022-09-03T11:23:10;4.68;;;1.42;;
59830;SDS011;45711;50.108;13.712;2022-09-03T11:25:42;1.73;;;1.10;;
59830;SDS011;45711;50.108;13.712;2022-09-03T11:28:15;4.95;;;1.13;;
59830;SDS011;45711;50.108;13.712;2022-09-03T11:30:54;2.92;;;1.10;;
59830;SDS011;45711;50.108;13.712;2022-09-03T11:33:39;27.75;;;2.13;;
59830;SDS011;45711;50.108;13.712;2022-09-03T11:36:10;4.25;;;1.05;;
59830;SDS011;45711;50.108;13.712;2022-09-03T11:38:36;2.53;;;1.17;;
59830;SDS011;45711;50.108;13.712;2022-09-03T11:41:10;1.60;;;1.10;;
59830;SDS011;45711;50.108;13.712;2022-09-03T11:43:38;5.93;;;1.40;;
59830;SDS011;45711;50.108;13.712;2022-09-03T11:46:05;4.50;;;1.23;;
59830;SDS011;45711;50.108;13.712;2022-09-03T11:48:37;4.60;;;1.00;;
59830;SDS011;45711;50.108;13.712;2022-09-03T11:51:15;3.55;;;1.48;;
59830;SDS011;45711;50.108;13.712;2022-09-03T11:53:52;3.05;;;1.00;;
59830;SDS011;45711;50.108;13.712;2022-09-03T11:56:20;2.58;;;1.10;;
59830;SDS011;45711;50.108;13.712;2022-09-03T11:58:56;2.72;;;1.20;;
59830;SDS011;45711;50.108;13.712;2022-09-03T12:01:28;2.00;;;1.10;;
59830;SDS011;45711;50.108;13.712;2022-09-03T12:03:57;2.28;;;1.33;;
59830;SDS011;45711;50.108;13.712;2022-09-03T12:06:39;6.25;;;1.30;;
59830;SDS011;45711;50.108;13.712;2022-09-03T12:09:19;3.25;;;1.30;;
59830;SDS011;45711;50.108;13.712;2022-09-03T12:12:00;4.40;;;1.20;;
59830;SDS011;45711;50.108;13.712;2022-09-03T12:14:39;4.80;;;1.38;;
59830;SDS011;45711;50.108;13.712;2022-09-03T12:17:16;3.90;;;1.33;;
59830;SDS011;45711;50.108;13.712;2022-09-03T12:19:49;1.83;;;1.20;;
59830;SDS011;45711;50.108;13.712;2022-09-03T12:22:17;8.50;;;1.50;;
59830;SDS011;45711;50.108;13.712;2022-09-03T12:24:50;3.53;;;1.17;;
59830;SDS011;45711;50.108;13.712;2022-09-03T12:27:18;4.00;;;1.20;;
59830;SDS011;45711;50.108;13.712;2022-09-03T12:29:57;8.43;;;1.70;;
59830;SDS011;45711;50.108;13.712;2022-09-03T12:32:26;3.33;;;1.57;;
59830;SDS011;45711;50.108;13.712;2022-09-03T12:34:54;3.38;;;1.25;;
59830;SDS011;45711;50.108;13.712;2022-09-03T12:37:35;5.43;;;1.20;;
59830;SDS011;45711;50.108;13.712;2022-09-03T12:40:02;2.25;;;1.42;;
59830;SDS011;45711;50.108;13.712;2022-09-03T12:42:29;2.63;;;1.38;;
59830;SDS011;45711;50.108;13.712;2022-09-03T12:45:03;9.90;;;1.55;;
59830;SDS011;45711;50.108;13.712;2022-09-03T12:47:30;2.72;;;1.10;;
59830;SDS011;45711;50.108;13.712;2022-09-03T12:49:55;1.40;;;1.20;;
59830;SDS011;45711;50.108;13.712;2022-09-03T12:52:24;3.05;;;1.40;;
59830;SDS011;45711;50.108;13.712;2022-09-03T12:54:53;2.47;;;1.42;;
59830;SDS011;45711;50.108;13.712;2022-09-03T12:57:25;4.75;;;1.50;;
59830;SDS011;45711;50.108;13.712;2022-09-03T12:59:58;1.98;;;1.20;;
59830;SDS011;45711;50.108;13.712;2022-09-03T13:02:29;3.53;;;1.40;;
59830;SDS011;45711;50.108;13.712;2022-09-03T13:05:01;1.92;;;1.08;;
59830;SDS011;45711;50.108;13.712;2022-09-03T13:07:28;4.90;;;1.70;;
59830;SDS011;45711;50.108;13.712;2022-09-03T13:10:00;7.68;;;1.83;;
59830;SDS011;45711;50.108;13.712;2022-09-03T13:12:29;4.97;;;1.85;;
59830;SDS011;45711;50.108;13.712;2022-09-03T13:15:03;4.40;;;1.90;;
59830;SDS011;45711;50.108;13.712;2022-09-03T13:17:35;4.60;;;1.50;;
59830;SDS011;45711;50.108;13.712;2022-09-03T13:20:20;2.33;;;1.35;;
59830;SDS011;45711;50.108;13.712;2022-09-03T13:23:09;3.15;;;1.30;;
59830;SDS011;45711;50.108;13.712;2022-09-03T13:26:01;3.53;;;1.33;;
59830;SDS011;45711;50.108;13.712;2022-09-03T13:28:41;6.45;;;1.40;;
59830;SDS011;45711;50.108;13.712;2022-09-03T13:31:23;2.33;;;1.40;;
59830;SDS011;45711;50.108;13.712;2022-09-03T13:33:54;3.05;;;1.40;;
59830;SDS011;45711;50.108;13.712;2022-09-03T13:36:26;6.18;;;1.30;;
59830;SDS011;45711;50.108;13.712;2022-09-03T13:38:56;4.05;;;1.40;;
59830;SDS011;45711;50.108;13.712;2022-09-03T13:41:32;2.97;;;1.40;;
59830;SDS011;45711;50.108;13.712;2022-09-03T13:44:04;3.43;;;1.50;;
59830;SDS011;45711;50.108;13.712;2022-09-03T13:46:38;5.53;;;1.35;;
59830;SDS011;45711;50.108;13.712;2022-09-03T13:49:25;2.53;;;1.42;;
59830;SDS011;45711;50.108;13.712;2022-09-03T13:52:18;3.83;;;1.60;;
59830;SDS011;45711;50.108;13.712;2022-09-03T13:54:50;6.45;;;1.80;;
59830;SDS011;45711;50.108;13.712;2022-09-03T13:57:23;4.15;;;1.63;;
59830;SDS011;45711;50.108;13.712;2022-09-03T13:59:57;2.95;;;1.40;;
59830;SDS011;45711;50.108;13.712;2022-09-03T14:02:32;2.13;;;1.40;;
59830;SDS011;45711;50.108;13.712;2022-09-03T14:05:10;2.28;;;1.50;;
59830;SDS011;45711;50.108;13.712;2022-09-03T14:07:43;5.05;;;1.42;;
59830;SDS011;45711;50.108;13.712;2022-09-03T14:10:19;1.80;;;1.30;;
59830;SDS011;45711;50.108;13.712;2022-09-03T14:12:48;4.50;;;1.58;;
59830;SDS011;45711;50.108;13.712;2022-09-03T14:15:25;2.25;;;1.40;;
59830;SDS011;45711;50.108;13.712;2022-09-03T14:17:58;3.05;;;1.50;;
59830;SDS011;45711;50.108;13.712;2022-09-03T14:20:35;3.60;;;1.40;;
59830;SDS011;45711;50.108;13.712;2022-09-03T14:23:09;5.00;;;1.90;;
59830;SDS011;45711;50.108;13.712;2022-09-03T14:25:52;5.75;;;1.63;;
59830;SDS011;45711;50.108;13.712;2022-09-03T14:28:23;6.95;;;1.40;;
59830;SDS011;45711;50.108;13.712;2022-09-03T14:30:56;1.92;;;1.50;;
59830;SDS011;45711;50.108;13.712;2022-09-03T14:33:33;4.70;;;1.30;;
59830;SDS011;45711;50.108;13.712;2022-09-03T14:36:10;2.90;;;1.42;;
59830;SDS011;45711;50.108;13.712;2022-09-03T14:38:51;4.07;;;1.50;;
59830;SDS011;45711;50.108;13.712;2022-09-03T14:44:26;2.38;;;1.42;;
59830;SDS011;45711;50.108;13.712;2022-09-03T14:47:13;4.55;;;1.50;;
59830;SDS011;45711;50.108;13.712;2022-09-03T14:55:24;5.80;;;1.40;;
59830;SDS011;45711;50.108;13.712;2022-09-03T14:58:16;2.47;;;1.50;;
59830;SDS011;45711;50.108;13.712;2022-09-03T15:00:48;2.17;;;1.38;;
59830;SDS011;45711;50.108;13.712;2022-09-03T15:03:27;3.03;;;1.25;;
59830;SDS011;45711;50.108;13.712;2022-09-03T15:06:15;15.85;;;1.50;;
59830;SDS011;45711;50.108;13.712;2022-09-03T15:08:53;3.90;;;1.83;;
59830;SDS011;45711;50.108;13.712;2022-09-03T15:11:42;3.47;;;1.65;;
59830;SDS011;45711;50.108;13.712;2022-09-03T15:14:13;5.00;;;2.17;;
59830;SDS011;45711;50.108;13.712;2022-09-03T15:16:46;4.40;;;1.73;;